This is the latest recevied weather packets stored in our database for station/object SP2ARQ-13. If no packets are shown the sender has not sent any weather packets the latest 1 day(s).
| Time | Temp. | Humidity | Pressure | Rain* | Wind** | Luminosity | Snow |
|---|---|---|---|---|---|---|---|
| 1778059655 | 18.89° C | 66% | 1004.5 hPa | - | - | - | - |
| 1778058755 | 18.33° C | 67% | 1004.4 hPa | - | - | - | - |
| 1778055154 | 17.78° C | 67% | 1003.8 hPa | - | - | - | - |
| 1778054254 | 18.89° C | 65% | 1004.3 hPa | - | - | - | - |
| 1778053354 | 18.89° C | 64% | 1003.8 hPa | - | - | - | - |
| 1778052453 | 18.89° C | 64% | 1003.9 hPa | - | - | - | - |
| 1778051553 | 17.78° C | 69% | 1003.7 hPa | - | - | - | - |
| 1778049753 | 15.56° C | 75% | 1003.7 hPa | - | - | - | - |
| 1778048853 | 15° C | 78% | 1003.7 hPa | - | - | - | - |
| 1778045252 | 12.22° C | 93% | 1004.3 hPa | - | - | - | - |
| 1778044352 | 11.67° C | 95% | 1004.6 hPa | - | - | - | - |
| 1778043452 | 11.67° C | 98% | 1004.6 hPa | - | - | - | - |
| 1778042551 | 12.22° C | 100% | 1004.6 hPa | - | - | - | - |
| 1778039851 | 11.11° C | 100% | 1005.2 hPa | - | - | - | - |
| 1778038951 | 11.11° C | 100% | 1005.1 hPa | - | - | - | - |
| 1778038051 | 10.56° C | 100% | 1005.4 hPa | - | - | - | - |
| 1778036250 | 10.56° C | 100% | 1005.7 hPa | - | - | - | - |
| 1778035350 | 10.56° C | 100% | 1005.9 hPa | - | - | - | - |
| 1778034450 | 10.56° C | 100% | 1005.9 hPa | - | - | - | - |
| 1778033550 | 11.11° C | 100% | 1006 hPa | - | - | - | - |
| 1778032650 | 11.11° C | 100% | 1006.1 hPa | - | - | - | - |
| 1778031750 | 11.67° C | 100% | 1006.3 hPa | - | - | - | - |
| 1778030849 | 11.11° C | 100% | 1006.4 hPa | - | - | - | - |
| 1778029949 | 11.11° C | 100% | 1006.4 hPa | - | - | - | - |
| 1778029049 | 11.11° C | 100% | 1006.6 hPa | - | - | - | - |
* Rain since midnight (hover to see other rain measurements)
** Current wind speed in m/s (hover to see current wind gust speed)